Aeroporto :
LOGIN :

Iscrizione | Disclaimer

   EN    FR    IT 

 










Sommario :    VFR   VFR Marginale   IFR   IFR Intensivo   IFR Molto Intensivo
Visibilità : 
Base nubi : 
>= 8 km
>= 3000ft
5 / 8 km
1000 / 3000 ft
1500m / 5 km
500 / 1000 ft
800 / 1500m
200 / 500 ft
< 800m
< 200 ft
Simboli :   Temporali  Nebbia  Neve Forte  Precipitazioni Forti  Vento > 20 kt
SIGMETs :   Varie  Temporali  Ghiacco  Turbolenza  Onda orograficha  Ceneri Vulcaniche






- Altitudine del aeroporto : 29 ft
- Codice IATA : SVG


ENZV - Sola

ULTIMO METAR :
  • 072220Z 12010KT 9999 -RA BKN045 03/01 Q0994

METARs OBSOLETI :
  • 072150Z 12010KT 9999 FEW038 OVC062 03/00 Q0995
  • 072120Z 12010KT 9999 FEW034 BKN064 02/00 Q0996
  • 072050Z 12007KT 9999 BKN038 OVC150 02/00 Q0997
  • 072020Z 13008KT 9999 BKN039 OVC160 02/01 Q0998
  • 071950Z 13006KT 9999 FEW029 BKN160 02/00 Q0998 NOSIG

TAF AMD TAF ENZV
Valido dal 07 a 21 ore il 08 a 18 ore UTC


0721/0818 15015KT 9999 FEW012 BKN020
BECMG 0800/0803 16022G35KT OVC012
TEMPO 0802/0808 4000 RADZ BR BKN008
BECMG 0807/0809 25020G30KT SCT015TCU BKN025
TEMPO 0809/0818 SHRA BKN014CB
BECMG 0814/0816 23015KT



MetMap, La meteo Aeronautica in un colpo d'occhio ! - Copyright ORBIFLY Dicembre 2007 - Disclaimer

ORBIFLY MET'MAP TEAM :

Programmazione e sviluppo : Alexandra Zaïnal
Concezione : Baudouin d'Aumeries
Aiuto per la programmazione : Marc-Olivier Méhu
Supporto tecnico e logistico : Manuel Goepfert
Aiuto per la traduzione : Arnaldo La Scala

Contatto : metmap@orbifly.com




FONTI E CREDITI :

   NOAA